Time;durP1;ratioP1;P1;durP2;ratioP2;P2;SDS_P1;SDS_P2;PMS_P1;PMS_P2;Temp;Humidity;BMP_temperature;BMP_pressure;BME280_temperature;BME280_humidity;BME280_pressure;Samples;Min_cycle;Max_cycle;Signal;HPM_P1;HPM_P2
2021/03/29 00:00:20;;;;;;;2.58;2.05;;;;;;;10.52;54.50;102173.88;689941;28;11127;-64
2021/03/29 00:00:42;;;;;;;2.85;2.05;;;;;;;10.55;54.82;102181.72;686779;28;90491;-61
2021/03/29 00:01:03;;;;;;;2.95;2.08;;;;;;;10.52;54.56;102175.75;690510;28;2249;-63
2021/03/29 00:01:25;;;;;;;2.75;2.00;;;;;;;10.51;54.48;102166.78;689097;28;46186;-64
2021/03/29 00:01:46;;;;;;;2.63;2.05;;;;;;;10.52;54.58;102175.75;688885;28;44524;-64
2021/03/29 00:02:07;;;;;;;2.20;2.00;;;;;;;10.52;54.80;102178.44;689953;28;22289;-66
2021/03/29 00:02:28;;;;;;;2.13;1.80;;;;;;;10.51;54.55;102177.56;689245;28;23408;-63
2021/03/29 00:02:50;;;;;;;2.08;1.90;;;;;;;10.50;54.66;102177.72;690194;28;23325;-65
2021/03/29 00:03:11;;;;;;;3.30;2.00;;;;;;;10.50;55.13;102170.50;690125;28;23486;-64
2021/03/29 00:03:33;;;;;;;3.88;2.15;;;;;;;10.50;54.44;102175.00;688986;28;46353;-64
2021/03/29 00:03:54;;;;;;;2.30;2.10;;;;;;;10.49;54.44;102173.34;690121;28;22552;-64
2021/03/29 00:04:16;;;;;;;2.20;2.00;;;;;;;10.50;54.61;102172.31;689709;28;45465;-66
2021/03/29 00:04:37;;;;;;;4.57;2.58;;;;;;;10.50;54.56;102166.91;689903;28;23433;-66
2021/03/29 00:04:58;;;;;;;2.85;2.50;;;;;;;10.51;54.93;102174.88;689396;28;42447;-66
2021/03/29 00:05:22;;;;;;;2.50;2.28;;;;;;;10.49;54.54;102171.47;690318;28;10471;-64
2021/03/29 00:05:43;;;;;;;2.78;2.10;;;;;;;10.52;54.51;102179.28;687908;28;66708;-65
2021/03/29 00:06:05;;;;;;;4.60;2.10;;;;;;;10.53;54.63;102177.44;689088;28;44268;-66
2021/03/29 00:06:27;;;;;;;2.22;1.85;;;;;;;10.53;54.84;102181.00;690278;28;23511;-64
2021/03/29 00:06:49;;;;;;;2.28;1.95;;;;;;;10.52;54.48;102173.03;688323;28;46246;-65
2021/03/29 00:07:10;;;;;;;3.22;1.90;;;;;;;10.53;54.45;102172.91;689054;28;46367;-65
2021/03/29 00:07:37;;;;;;;2.58;2.00;;;;;;;10.53;54.62;102172.91;689803;28;17910;-65
2021/03/29 00:08:03;;;;;;;2.88;1.90;;;;;;;10.56;54.68;102175.28;685929;28;137904;-65
2021/03/29 00:08:27;;;;;;;2.22;2.03;;;;;;;10.59;54.66;102179.56;686934;28;115556;-64
2021/03/29 00:08:48;;;;;;;4.32;2.15;;;;;;;10.58;54.34;102173.31;687714;28;90356;-65
2021/03/29 00:09:10;;;;;;;3.15;1.98;;;;;;;10.56;54.60;102175.28;689255;28;22407;-65
2021/03/29 00:09:31;;;;;;;3.15;2.30;;;;;;;10.56;54.58;102175.28;688983;28;46328;-64
2021/03/29 00:09:53;;;;;;;2.40;2.10;;;;;;;10.55;54.72;102170.91;689460;28;36336;-65
2021/03/29 00:10:15;;;;;;;2.60;2.15;;;;;;;10.55;54.44;102168.22;687318;28;45227;-65
2021/03/29 00:10:38;;;;;;;3.42;2.22;;;;;;;10.56;54.70;102174.44;687619;28;46438;-66
2021/03/29 00:11:00;;;;;;;3.95;2.33;;;;;;;10.58;54.49;102176.03;688261;28;70085;-66
2021/03/29 00:11:22;;;;;;;4.03;2.22;;;;;;;10.57;54.44;102177.00;689699;28;23590;-65
2021/03/29 00:11:44;;;;;;;3.53;2.20;;;;;;;10.57;54.27;102173.47;688762;28;69434;-64
2021/03/29 00:12:07;;;;;;;3.17;2.10;;;;;;;10.58;54.42;102172.44;688955;28;46416;-64
2021/03/29 00:12:29;;;;;;;3.80;2.00;;;;;;;10.57;54.39;102171.59;688201;28;69445;-64
2021/03/29 00:12:51;;;;;;;3.85;2.10;;;;;;;10.55;54.38;102168.22;692097;28;22419;-64
2021/03/29 00:13:13;;;;;;;2.35;2.10;;;;;;;10.57;54.66;102176.16;688704;28;46873;-63
2021/03/29 00:13:35;;;;;;;3.75;2.17;;;;;;;10.56;54.40;102167.19;685820;28;35598;-64
2021/03/29 00:13:56;;;;;;;2.72;2.08;;;;;;;10.56;54.61;102177.16;686713;28;26697;-64
2021/03/29 00:14:18;;;;;;;3.10;2.20;;;;;;;10.55;54.69;102176.31;687600;28;4784;-64
2021/03/29 00:14:40;;;;;;;3.70;2.10;;;;;;;10.55;54.41;102179.00;685601;28;46216;-64
2021/03/29 00:15:04;;;;;;;3.95;2.20;;;;;;;10.56;54.43;102177.16;683105;28;66660;-64
2021/03/29 00:15:28;;;;;;;4.55;2.30;;;;;;;10.55;54.75;102173.59;684280;28;91750;-63
2021/03/29 00:15:51;;;;;;;3.20;2.10;;;;;;;10.55;54.52;102170.91;687704;28;70292;-63
2021/03/29 00:16:13;;;;;;;2.03;1.90;;;;;;;10.53;54.64;102170.22;688473;28;67268;-64
2021/03/29 00:16:35;;;;;;;2.00;1.90;;;;;;;10.56;54.45;102180.69;689609;28;27413;-64
2021/03/29 00:16:56;;;;;;;2.95;1.80;;;;;;;10.54;54.63;102165.66;689061;28;46215;-64
2021/03/29 00:17:18;;;;;;;3.33;1.92;;;;;;;10.59;54.43;102168.75;689368;28;46276;-64
2021/03/29 00:17:40;;;;;;;3.35;1.98;;;;;;;10.59;54.42;102175.00;689880;28;22495;-64
2021/03/29 00:18:04;;;;;;;2.75;2.10;;;;;;;10.60;54.51;102174.03;688571;28;61823;-64
2021/03/29 00:18:25;;;;;;;3.65;2.22;;;;;;;10.59;54.56;102169.59;687802;28;68565;-64
2021/03/29 00:18:47;;;;;;;3.05;2.10;;;;;;;10.60;54.64;102178.59;689222;28;48207;-64
2021/03/29 00:19:08;;;;;;;3.55;2.20;;;;;;;10.60;54.19;102179.44;690407;28;16064;-64
2021/03/29 00:19:31;;;;;;;4.20;2.28;;;;;;;10.58;54.26;102167.06;689151;28;45551;-64
2021/03/29 00:19:52;;;;;;;2.40;1.92;;;;;;;10.59;54.29;102172.31;689267;28;44870;-64
2021/03/29 00:20:16;;;;;;;3.53;2.30;;;;;;;10.58;54.51;102161.66;690200;28;3742;-64
2021/03/29 00:20:40;;;;;;;3.40;2.30;;;;;;;10.58;54.34;102167.94;686854;28;93110;-64
2021/03/29 00:21:05;;;;;;;2.35;2.03;;;;;;;10.62;54.26;102174.72;687734;28;78788;-64
2021/03/29 00:21:26;;;;;;;3.10;2.00;;;;;;;10.64;54.49;102172.75;686449;28;115223;-64
2021/03/29 00:21:47;;;;;;;4.38;2.15;;;;;;;10.68;54.13;102172.47;689814;28;23628;-64
2021/03/29 00:22:09;;;;;;;4.30;2.30;;;;;;;10.69;54.49;102174.16;690088;28;22370;-64
2021/03/29 00:22:30;;;;;;;4.53;2.17;;;;;;;10.70;54.31;102168.63;689382;28;46360;-64
2021/03/29 00:22:52;;;;;;;3.33;2.38;;;;;;;10.69;53.92;102174.16;689874;28;23253;-64
2021/03/29 00:23:14;;;;;;;4.85;2.58;;;;;;;10.66;54.23;102167.22;688663;28;46311;-63
2021/03/29 00:23:35;;;;;;;3.03;2.25;;;;;;;10.64;54.07;102169.19;688703;28;47274;-64
2021/03/29 00:23:57;;;;;;;2.40;2.15;;;;;;;10.63;54.36;102162.09;690032;28;23500;-64
2021/03/29 00:24:19;;;;;;;2.17;1.90;;;;;;;10.62;53.96;102171.19;689353;28;46391;-64
2021/03/29 00:24:40;;;;;;;2.70;1.85;;;;;;;10.60;54.00;102163.22;688925;28;45301;-64
2021/03/29 00:25:01;;;;;;;3.88;2.05;;;;;;;10.59;54.42;102164.22;690393;28;5139;-64
2021/03/29 00:25:22;;;;;;;2.95;2.20;;;;;;;10.59;54.27;102166.91;689423;28;21560;-64
2021/03/29 00:25:45;;;;;;;2.60;2.05;;;;;;;10.58;54.43;102170.63;688767;28;39170;-64
2021/03/29 00:26:06;;;;;;;3.00;2.10;;;;;;;10.59;54.44;102168.75;689513;28;34819;-64
2021/03/29 00:26:28;;;;;;;3.10;2.03;;;;;;;10.60;54.16;102167.78;689835;28;22101;-64
2021/03/29 00:26:49;;;;;;;3.40;2.20;;;;;;;10.61;54.31;102162.22;688643;28;45484;-64
2021/03/29 00:27:11;;;;;;;2.45;2.13;;;;;;;10.62;54.55;102171.19;690149;28;16648;-63
2021/03/29 00:27:32;;;;;;;4.47;2.00;;;;;;;10.60;54.49;102163.22;689175;28;46315;-64
2021/03/29 00:27:53;;;;;;;3.80;2.22;;;;;;;10.62;54.31;102165.78;690100;28;20830;-64
2021/03/29 00:28:14;;;;;;;2.30;2.03;;;;;;;10.60;54.56;102171.31;690921;28;14029;-65
2021/03/29 00:28:36;;;;;;;2.15;1.95;;;;;;;10.61;54.39;102173.03;690037;28;14103;-66
2021/03/29 00:28:57;;;;;;;2.40;2.20;;;;;;;10.57;54.50;102158.09;689522;28;35872;-64
2021/03/29 00:29:18;;;;;;;2.03;1.92;;;;;;;10.60;54.33;102163.22;690229;28;20765;-66
2021/03/29 00:29:39;;;;;;;2.63;2.10;;;;;;;10.62;54.49;102163.06;690233;28;15568;-65
2021/03/29 00:30:05;;;;;;;3.05;2.10;;;;;;;10.61;54.56;102172.16;690848;28;971;-65
2021/03/29 00:30:30;;;;;;;2.60;2.00;;;;;;;10.60;54.07;102165.09;688214;28;115200;-64
2021/03/29 00:30:52;;;;;;;2.50;2.10;;;;;;;10.58;54.45;102158.94;689037;28;111806;-65
2021/03/29 00:31:13;;;;;;;2.97;1.98;;;;;;;10.57;54.37;102158.09;692422;28;23318;-64
2021/03/29 00:31:36;;;;;;;3.55;2.15;;;;;;;10.63;54.13;102165.63;691956;28;41352;-65
2021/03/29 00:31:58;;;;;;;3.45;2.20;;;;;;;10.63;54.46;102162.94;691294;28;54950;-62
2021/03/29 00:32:19;;;;;;;3.28;1.98;;;;;;;10.63;54.17;102164.78;690582;28;40273;-63
2021/03/29 00:32:41;;;;;;;5.60;2.05;;;;;;;10.63;54.46;102176.44;689839;28;23555;-65
2021/03/29 00:33:04;;;;;;;4.45;2.08;;;;;;;10.61;54.49;102169.47;689227;28;41962;-65
2021/03/29 00:33:27;;;;;;;2.80;2.05;;;;;;;10.60;54.32;102171.31;687952;28;69489;-63
2021/03/29 00:33:49;;;;;;;2.30;2.00;;;;;;;10.60;54.21;102165.91;688930;28;54777;-63
2021/03/29 00:34:10;;;;;;;2.88;2.20;;;;;;;10.62;54.19;102174.72;689083;28;41542;-62
2021/03/29 00:34:32;;;;;;;3.60;2.15;;;;;;;10.65;54.43;102168.19;690098;28;9502;-67
2021/03/29 00:34:54;;;;;;;3.88;2.20;;;;;;;10.62;54.31;102163.91;689963;28;18829;-65
2021/03/29 00:35:17;;;;;;;3.03;2.10;;;;;;;10.62;54.37;102172.03;688253;28;69527;-63
2021/03/29 00:35:40;;;;;;;2.25;2.00;;;;;;;10.62;54.31;102173.88;687525;28;66565;-64
2021/03/29 00:36:02;;;;;;;3.90;2.17;;;;;;;10.62;54.58;102176.59;688570;28;56696;-64
2021/03/29 00:36:24;;;;;;;3.13;2.38;;;;;;;10.63;54.33;102167.50;685841;28;44406;-64
2021/03/29 00:36:46;;;;;;;2.90;2.20;;;;;;;10.65;54.32;102168.19;686294;28;44546;-64
2021/03/29 00:37:08;;;;;;;3.45;2.10;;;;;;;10.65;54.36;102170.91;686286;28;40809;-64
2021/03/29 00:37:29;;;;;;;3.25;2.30;;;;;;;10.63;54.20;102168.34;687140;28;15758;-64
2021/03/29 00:37:52;;;;;;;2.88;2.28;;;;;;;10.64;54.25;102167.34;686652;28;38438;-64
2021/03/29 00:38:15;;;;;;;4.35;2.45;;;;;;;10.63;54.41;102170.19;687102;28;41337;-64
2021/03/29 00:38:37;;;;;;;2.40;2.20;;;;;;;10.66;54.32;102172.63;687425;28;92075;-64
2021/03/29 00:38:58;;;;;;;2.78;2.42;;;;;;;10.68;54.14;102170.63;688985;28;46381;-64
2021/03/29 00:39:20;;;;;;;2.72;2.30;;;;;;;10.67;54.30;102168.06;689299;28;23495;-64
2021/03/29 00:39:42;;;;;;;2.72;2.30;;;;;;;10.66;54.31;102169.91;689141;28;45258;-64
2021/03/29 00:40:05;;;;;;;3.47;2.20;;;;;;;10.65;53.92;102168.19;689174;28;45216;-64
2021/03/29 00:40:27;;;;;;;4.82;2.30;;;;;;;10.66;54.00;102169.03;687740;28;58147;-63
2021/03/29 00:40:51;;;;;;;2.75;2.30;;;;;;;10.66;54.37;102164.50;689529;28;23406;-63
2021/03/29 00:41:12;;;;;;;2.65;2.40;;;;;;;10.67;54.30;102171.59;687005;28;110964;-63
2021/03/29 00:41:34;;;;;;;2.65;2.42;;;;;;;10.66;53.95;102167.22;689059;28;46302;-63
2021/03/29 00:41:56;;;;;;;4.45;2.45;;;;;;;10.69;54.00;102166.94;689747;28;13351;-63
2021/03/29 00:42:18;;;;;;;3.45;2.22;;;;;;;10.70;54.30;102162.38;686549;28;22384;-65
2021/03/29 00:42:40;;;;;;;2.95;2.25;;;;;;;10.68;54.24;102167.91;685618;28;69294;-63
2021/03/29 00:43:11;;;;;;;2.78;2.30;;;;;;;10.67;54.26;102170.75;685649;28;46504;-63
2021/03/29 00:43:34;;;;;;;5.03;2.20;;;;;;;10.64;54.21;102161.94;679646;28;137855;-64
2021/03/29 00:43:56;;;;;;;4.40;2.40;;;;;;;10.67;54.33;102166.19;679548;29;67519;-64
2021/03/29 00:44:19;;;;;;;2.92;2.63;;;;;;;10.66;54.09;102164.50;683681;28;21308;-65
2021/03/29 00:44:40;;;;;;;3.75;2.33;;;;;;;10.66;53.84;102172.63;682098;28;92533;-64
2021/03/29 00:45:02;;;;;;;2.80;2.30;;;;;;;10.67;54.08;102170.75;684305;28;13214;-64
2021/03/29 00:45:23;;;;;;;3.22;2.25;;;;;;;10.66;53.79;102169.91;683733;28;23528;-65
2021/03/29 00:45:47;;;;;;;3.20;2.00;;;;;;;10.67;54.27;102168.06;683438;28;44994;-64
2021/03/29 00:46:10;;;;;;;3.63;2.15;;;;;;;10.64;54.29;102167.34;685231;28;67232;-64
2021/03/29 00:46:31;;;;;;;2.78;2.08;;;;;;;10.68;53.96;102162.50;684432;28;92137;-65
2021/03/29 00:46:53;;;;;;;3.58;2.60;;;;;;;10.69;54.32;102169.63;687999;28;13256;-64
2021/03/29 00:47:14;;;;;;;3.40;2.38;;;;;;;10.70;54.13;102167.78;689174;28;17809;-64
2021/03/29 00:47:36;;;;;;;4.40;2.50;;;;;;;10.69;54.19;102168.75;688862;28;46429;-64
2021/03/29 00:47:57;;;;;;;3.53;2.38;;;;;;;10.66;54.12;102172.63;689123;28;46734;-65
2021/03/29 00:48:20;;;;;;;3.50;2.40;;;;;;;10.66;54.17;102172.63;689539;28;23459;-64
2021/03/29 00:48:43;;;;;;;3.55;2.40;;;;;;;10.65;54.06;102162.78;686615;28;69306;-64
2021/03/29 00:49:09;;;;;;;3.13;2.33;;;;;;;10.64;54.14;102170.06;685132;28;42790;-64
2021/03/29 00:49:31;;;;;;;2.97;2.30;;;;;;;10.63;54.42;102173.75;678961;28;137793;-66
2021/03/29 00:49:52;;;;;;;4.70;2.58;;;;;;;10.63;54.18;102172.91;683246;28;20404;-66
2021/03/29 00:50:16;;;;;;;4.18;2.30;;;;;;;10.63;54.01;102170.19;682850;28;29889;-66
2021/03/29 00:50:44;;;;;;;4.35;2.47;;;;;;;10.63;54.47;102172.91;680752;28;92338;-66
2021/03/29 00:51:12;;;;;;;5.53;2.40;;;;;;;10.63;54.39;102164.78;685491;28;138260;-66
2021/03/29 00:51:36;;;;;;;3.63;2.55;;;;;;;10.61;54.53;102173.03;688078;28;138760;-65
2021/03/29 00:51:59;;;;;;;4.00;2.30;;;;;;;10.61;54.22;102181.16;689449;28;91938;-66
2021/03/29 00:52:21;;;;;;;2.65;2.28;;;;;;;10.61;54.39;102174.88;692487;28;23195;-66
2021/03/29 00:52:42;;;;;;;2.88;2.38;;;;;;;10.62;54.18;102172.03;692523;28;23480;-65
2021/03/29 00:53:04;;;;;;;3.80;2.65;;;;;;;10.59;54.22;102172.31;690803;28;23579;-65
2021/03/29 00:53:25;;;;;;;3.95;2.78;;;;;;;10.62;54.27;102171.19;686056;28;45358;-63
2021/03/29 00:53:48;;;;;;;3.80;2.33;;;;;;;10.61;54.29;102173.03;686657;28;45651;-66
2021/03/29 00:54:10;;;;;;;4.57;2.35;;;;;;;10.60;54.35;102170.47;686469;28;36173;-65
2021/03/29 00:54:32;;;;;;;4.15;2.42;;;;;;;10.59;54.17;102171.47;686670;28;26924;-66
2021/03/29 00:54:53;;;;;;;2.83;2.60;;;;;;;10.57;54.13;102170.75;686948;28;25756;-65
2021/03/29 00:55:15;;;;;;;2.88;2.40;;;;;;;10.59;54.17;102171.47;687255;28;41819;-65
2021/03/29 00:55:37;;;;;;;2.47;2.28;;;;;;;10.59;54.12;102176.88;689803;28;22262;-66
2021/03/29 00:56:00;;;;;;;2.40;2.20;;;;;;;10.58;54.58;102172.44;687752;28;70626;-65
2021/03/29 00:56:22;;;;;;;2.58;2.10;;;;;;;10.56;54.47;102167.19;689073;28;45290;-65
2021/03/29 00:56:44;;;;;;;2.83;2.40;;;;;;;10.56;54.77;102171.75;688890;28;46144;-66
2021/03/29 00:57:05;;;;;;;2.75;2.33;;;;;;;10.54;54.67;102171.03;687777;28;45284;-66
2021/03/29 00:57:26;;;;;;;3.20;2.50;;;;;;;10.56;54.57;102178.00;689227;28;46404;-66
2021/03/29 00:57:48;;;;;;;3.60;2.50;;;;;;;10.56;54.76;102172.59;689840;28;22787;-65
2021/03/29 00:58:10;;;;;;;4.60;2.50;;;;;;;10.58;54.41;102177.84;689342;28;39894;-64
2021/03/29 00:58:32;;;;;;;3.42;2.22;;;;;;;10.56;54.35;102167.19;688289;28;46368;-64
2021/03/29 00:58:54;;;;;;;2.40;2.20;;;;;;;10.59;54.32;102176.88;690334;28;1330;-64
2021/03/29 00:59:17;;;;;;;3.30;2.38;;;;;;;10.58;54.28;102170.63;689299;28;45793;-64
2021/03/29 00:59:38;;;;;;;2.80;2.50;;;;;;;10.59;54.57;102179.56;689002;28;44533;-64
2021/03/29 00:59:59;;;;;;;3.45;2.30;;;;;;;10.58;54.53;102181.44;689554;28;22418;-64
2021/03/29 01:00:26;;;;;;;4.32;2.42;;;;;;;10.61;54.57;102175.75;688829;28;46344;-64
2021/03/29 01:00:50;;;;;;;2.53;2.13;;;;;;;10.62;54.38;102176.59;684923;28;144187;-64
2021/03/29 01:01:14;;;;;;;2.58;2.38;;;;;;;10.61;54.30;102182.97;687572;28;84275;-64
2021/03/29 01:01:39;;;;;;;4.35;2.40;;;;;;;10.60;54.35;102181.28;686863;28;93267;-64
2021/03/29 01:02:00;;;;;;;5.38;2.40;;;;;;;10.61;54.33;102177.56;686297;28;115434;-63
2021/03/29 01:02:22;;;;;;;3.60;2.28;;;;;;;10.60;54.40;102182.13;689915;28;21708;-64
2021/03/29 01:02:44;;;;;;;3.70;2.30;;;;;;;10.60;54.60;102187.53;689479;28;38722;-64
2021/03/29 01:03:10;;;;;;;4.57;2.33;;;;;;;10.62;54.36;102184.69;688898;28;45370;-64
2021/03/29 01:03:33;;;;;;;3.30;2.33;;;;;;;10.63;54.30;102186.41;684862;28;159633;-64
2021/03/29 01:03:57;;;;;;;2.78;2.40;;;;;;;10.63;54.54;102189.13;688255;28;67807;-64
2021/03/29 01:04:19;;;;;;;4.25;2.33;;;;;;;10.63;54.28;102181.84;687363;28;93060;-64
2021/03/29 01:04:40;;;;;;;4.85;2.33;;;;;;;10.61;54.57;102175.75;689731;28;29061;-63
2021/03/29 01:05:01;;;;;;;3.00;2.40;;;;;;;10.59;54.28;102177.72;690254;28;8228;-64
2021/03/29 01:05:23;;;;;;;2.58;2.20;;;;;;;10.59;54.52;102185.81;690334;28;1795;-64
2021/03/29 01:05:45;;;;;;;6.32;2.42;;;;;;;10.66;54.37;102177.16;689123;28;22405;-64
2021/03/29 01:06:08;;;;;;;5.68;3.10;;;;;;;10.68;54.55;102181.44;689224;28;41109;-64
2021/03/29 01:06:32;;;;;;;3.65;2.40;;;;;;;10.70;54.17;102174.03;687977;28;69460;-64
2021/03/29 01:06:54;;;;;;;2.60;2.40;;;;;;;10.72;54.33;102177.44;687519;28;80903;-64
2021/03/29 01:07:16;;;;;;;3.83;2.50;;;;;;;10.73;54.05;102178.28;688817;28;46444;-64
2021/03/29 01:07:37;;;;;;;2.78;2.35;;;;;;;10.70;54.29;102179.41;689595;28;45279;-65
2021/03/29 01:07:59;;;;;;;3.30;2.50;;;;;;;10.70;53.95;102178.56;690012;28;22028;-65
2021/03/29 01:08:20;;;;;;;2.72;2.17;;;;;;;10.69;54.35;102175.03;688788;28;47350;-65
2021/03/29 01:08:44;;;;;;;2.80;2.10;;;;;;;10.67;54.21;102178.88;689995;28;19682;-66
2021/03/29 01:09:08;;;;;;;3.70;2.50;;;;;;;10.67;54.05;102182.41;687594;28;82709;-63
2021/03/29 01:09:30;;;;;;;2.65;2.45;;;;;;;10.65;54.23;102181.72;687361;28;92282;-65
2021/03/29 01:09:55;;;;;;;3.03;2.25;;;;;;;10.63;54.34;102181.00;685777;28;61026;-66
2021/03/29 01:10:16;;;;;;;3.85;2.42;;;;;;;10.61;54.50;102178.44;682489;28;1739;-64
2021/03/29 01:10:37;;;;;;;3.25;2.35;;;;;;;10.63;54.19;102181.00;684389;28;4210;-66
2021/03/29 01:11:00;;;;;;;2.63;2.10;;;;;;;10.64;54.54;102180.88;684435;28;23461;-65
2021/03/29 01:11:23;;;;;;;3.50;2.25;;;;;;;10.65;54.54;102189.81;683323;28;44261;-66
2021/03/29 01:11:48;;;;;;;6.57;2.72;;;;;;;10.68;54.08;102185.97;684240;28;69402;-65
2021/03/29 01:12:11;;;;;;;3.80;2.28;;;;;;;10.68;54.39;102181.44;685339;28;115205;-66
2021/03/29 01:12:32;;;;;;;2.25;2.05;;;;;;;10.67;54.30;102181.56;687807;28;62365;-64
2021/03/29 01:12:56;;;;;;;2.35;2.15;;;;;;;10.65;54.22;102181.72;686668;28;22414;-66
2021/03/29 01:13:18;;;;;;;3.17;2.30;;;;;;;10.65;54.42;102184.41;684525;28;92204;-66
2021/03/29 01:13:43;;;;;;;5.82;2.30;;;;;;;10.65;54.23;102187.13;685807;28;46265;-65
2021/03/29 01:14:07;;;;;;;3.60;2.17;;;;;;;10.66;54.24;102177.16;683571;28;115080;-65
2021/03/29 01:14:29;;;;;;;4.50;2.50;;;;;;;10.66;54.19;102182.56;684892;28;85834;-65
2021/03/29 01:14:51;;;;;;;3.40;2.25;;;;;;;10.63;54.29;102186.41;687543;28;44628;-65
2021/03/29 01:15:14;;;;;;;3.67;2.30;;;;;;;10.63;54.19;102186.41;688849;28;47558;-66
2021/03/29 01:15:36;;;;;;;4.45;2.10;;;;;;;10.63;54.48;102176.44;687508;28;69374;-65
2021/03/29 01:15:58;;;;;;;2.75;2.25;;;;;;;10.64;54.22;102183.56;688313;28;47826;-66
2021/03/29 01:16:21;;;;;;;2.92;2.17;;;;;;;10.67;54.29;102182.41;689811;28;17491;-65
2021/03/29 01:16:46;;;;;;;3.45;2.10;;;;;;;10.69;54.36;102179.56;688201;28;69335;-65
2021/03/29 01:17:11;;;;;;;3.20;2.30;;;;;;;10.67;54.37;102177.00;685552;28;113931;-66
2021/03/29 01:17:34;;;;;;;3.30;2.10;;;;;;;10.67;54.14;102181.56;686446;28;114955;-64
2021/03/29 01:17:55;;;;;;;2.45;2.15;;;;;;;10.68;54.46;102180.59;688278;28;69431;-66
2021/03/29 01:18:19;;;;;;;3.30;2.40;;;;;;;10.66;54.25;102180.72;688280;28;44515;-65
2021/03/29 01:18:42;;;;;;;2.83;2.22;;;;;;;10.69;54.25;102177.75;688165;28;69392;-66
2021/03/29 01:19:10;;;;;;;4.00;2.33;;;;;;;10.69;54.19;102183.16;687765;28;62766;-66
2021/03/29 01:19:46;;;;;;;2.90;2.10;;;;;;;10.69;53.95;102183.16;688213;28;128750;-66
2021/03/29 01:20:13;;;;;;;2.88;2.10;;;;;;;10.72;54.09;102188.25;687842;28;137588;-66
2021/03/29 01:20:41;;;;;;;2.97;2.17;;;;;;;10.74;54.09;102186.25;687207;28;161235;-66
2021/03/29 01:21:16;;;;;;;3.60;2.20;;;;;;;10.71;53.89;102180.28;690606;28;61557;-65
2021/03/29 01:21:56;;;;;;;4.30;2.33;;;;;;;10.68;54.02;102177.88;685877;28;136793;-64
2021/03/29 01:22:20;;;;;;;3.28;2.25;;;;;;;10.64;54.32;102175.47;682131;28;137448;-66
2021/03/29 01:22:43;;;;;;;2.55;2.03;;;;;;;10.61;54.42;102178.44;687931;28;67314;-64
2021/03/29 01:23:05;;;;;;;3.13;2.25;;;;;;;10.64;54.50;102177.28;687539;28;78602;-65
2021/03/29 01:23:28;;;;;;;3.55;2.28;;;;;;;10.61;54.66;102172.16;689282;28;22534;-65
2021/03/29 01:23:49;;;;;;;3.03;2.30;;;;;;;10.57;54.48;102166.22;687813;28;70282;-65
2021/03/29 01:24:13;;;;;;;3.35;2.20;;;;;;;10.63;54.28;102167.50;689079;28;46357;-65
2021/03/29 01:24:45;;;;;;;3.42;2.10;;;;;;;10.62;54.40;102172.03;686639;28;92984;-64
2021/03/29 01:25:09;;;;;;;2.10;1.80;;;;;;;10.62;54.43;102172.03;685253;28;135849;-63
2021/03/29 01:25:35;;;;;;;3.03;2.08;;;;;;;10.68;54.41;102172.47;687414;28;93041;-65
2021/03/29 01:26:04;;;;;;;4.22;2.35;;;;;;;10.66;54.13;102163.63;688392;28;59469;-65
2021/03/29 01:26:39;;;;;;;2.47;2.00;;;;;;;10.65;54.57;102170.91;685343;28;60442;-65
2021/03/29 01:27:00;;;;;;;2.17;1.98;;;;;;;10.65;54.54;102170.91;682636;28;137705;-66
2021/03/29 01:27:25;;;;;;;2.80;2.22;;;;;;;10.63;54.60;102172.91;686261;28;46490;-66
2021/03/29 01:27:49;;;;;;;3.30;2.30;;;;;;;10.61;54.46;102162.22;684699;28;90190;-65
2021/03/29 01:28:13;;;;;;;3.88;2.28;;;;;;;10.60;54.29;102159.69;684590;28;93242;-66
2021/03/29 01:28:35;;;;;;;3.00;2.22;;;;;;;10.63;54.30;102167.50;683227;28;113668;-64
2021/03/29 01:28:56;;;;;;;2.70;2.20;;;;;;;10.66;54.09;102166.34;686793;28;21583;-66
2021/03/29 01:29:18;;;;;;;3.33;2.00;;;;;;;10.65;54.49;102168.19;687827;28;45994;-66
2021/03/29 01:29:40;;;;;;;4.05;2.03;;;;;;;10.68;54.33;102167.06;689516;28;23526;-66
2021/03/29 01:30:03;;;;;;;5.15;2.20;;;;;;;10.66;53.93;102166.34;686335;28;41884;-65
2021/03/29 01:30:24;;;;;;;3.63;2.10;;;;;;;10.66;54.63;102167.22;684889;28;66732;-66
2021/03/29 01:30:46;;;;;;;2.60;2.00;;;;;;;10.64;54.49;102163.78;685291;28;44198;-65
2021/03/29 01:31:08;;;;;;;2.25;2.03;;;;;;;10.64;54.60;102170.06;686989;28;22391;-62
2021/03/29 01:31:29;;;;;;;3.17;2.05;;;;;;;10.66;54.27;102169.91;686122;28;37346;-66
2021/03/29 01:31:51;;;;;;;5.05;2.50;;;;;;;10.67;54.33;102174.31;686213;28;45343;-65
2021/03/29 01:32:12;;;;;;;4.05;2.25;;;;;;;10.68;54.25;102167.91;690109;28;10598;-66
2021/03/29 01:32:33;;;;;;;2.65;2.20;;;;;;;10.71;54.40;102166.78;688634;28;46335;-66
2021/03/29 01:32:55;;;;;;;3.28;2.17;;;;;;;10.68;54.41;102164.38;689840;28;21346;-64
2021/03/29 01:33:17;;;;;;;2.70;2.15;;;;;;;10.72;54.24;102173.88;690028;28;22839;-66
2021/03/29 01:33:38;;;;;;;3.72;2.05;;;;;;;10.71;54.08;102164.94;687925;28;44395;-66
2021/03/29 01:34:00;;;;;;;4.50;2.30;;;;;;;10.69;54.49;102166.94;688837;28;46350;-66
2021/03/29 01:34:21;;;;;;;3.53;2.10;;;;;;;10.70;54.12;102167.78;689048;28;45163;-66
2021/03/29 01:34:43;;;;;;;2.58;2.10;;;;;;;10.69;54.27;102166.94;689736;28;24361;-64
2021/03/29 01:35:09;;;;;;;3.13;2.20;;;;;;;10.67;54.39;102166.19;688975;28;46297;-66
2021/03/29 01:35:31;;;;;;;2.42;2.00;;;;;;;10.66;54.23;102166.34;685644;28;138133;-66
2021/03/29 01:35:55;;;;;;;2.33;2.13;;;;;;;10.64;54.45;102167.34;689550;28;22926;-66
2021/03/29 01:36:17;;;;;;;3.92;2.20;;;;;;;10.67;54.43;102176.16;687070;28;92494;-65
2021/03/29 01:36:39;;;;;;;6.53;2.38;;;;;;;10.66;54.29;102174.44;689297;28;36126;-65
2021/03/29 01:37:02;;;;;;;3.83;2.30;;;;;;;10.62;54.61;102161.22;688443;28;45234;-64
2021/03/29 01:37:25;;;;;;;2.28;2.10;;;;;;;10.65;54.41;102165.50;688830;28;44380;-65
2021/03/29 01:37:48;;;;;;;3.67;2.22;;;;;;;10.66;54.56;102169.03;687361;28;91542;-65
2021/03/29 01:38:10;;;;;;;4.28;2.40;;;;;;;10.68;54.24;102169.78;688846;28;44494;-65
2021/03/29 01:38:31;;;;;;;2.58;2.22;;;;;;;10.67;54.63;102168.91;688816;28;47407;-63
2021/03/29 01:38:53;;;;;;;4.00;2.15;;;;;;;10.67;54.41;102160.78;689988;28;23483;-65
2021/03/29 01:39:14;;;;;;;4.00;2.40;;;;;;;10.68;54.21;102162.50;689085;28;46328;-64
2021/03/29 01:39:36;;;;;;;3.30;2.13;;;;;;;10.68;54.53;102169.78;688805;28;22411;-64
2021/03/29 01:39:57;;;;;;;2.28;2.10;;;;;;;10.67;54.59;102166.19;688385;28;45279;-63
2021/03/29 01:40:19;;;;;;;3.08;2.20;;;;;;;10.67;54.46;102170.75;689957;28;8078;-65
2021/03/29 01:40:45;;;;;;;4.30;2.20;;;;;;;10.66;54.52;102169.03;687823;28;60675;-65
2021/03/29 01:41:07;;;;;;;4.22;2.22;;;;;;;10.68;54.28;102172.47;689151;28;46489;-64
2021/03/29 01:41:29;;;;;;;4.00;2.28;;;;;;;10.66;54.59;102163.63;688326;28;45266;-65
2021/03/29 01:41:51;;;;;;;3.88;2.40;;;;;;;10.65;54.33;102160.09;688375;28;43674;-65
2021/03/29 01:42:13;;;;;;;3.55;2.20;;;;;;;10.63;54.33;102162.09;689779;28;20057;-65
2021/03/29 01:42:36;;;;;;;3.35;2.10;;;;;;;10.62;54.50;102165.78;688125;28;46398;-65
2021/03/29 01:42:57;;;;;;;2.75;2.10;;;;;;;10.62;54.78;102163.91;687625;28;65541;-64
2021/03/29 01:43:19;;;;;;;4.45;2.35;;;;;;;10.62;54.64;102163.91;689143;28;41781;-65
2021/03/29 01:43:40;;;;;;;3.63;2.20;;;;;;;10.61;54.37;102162.22;689209;28;23469;-64
2021/03/29 01:44:02;;;;;;;3.15;1.95;;;;;;;10.63;54.52;102160.22;688329;28;43087;-65
2021/03/29 01:44:24;;;;;;;3.35;2.20;;;;;;;10.63;54.56;102162.94;689401;28;23685;-64
2021/03/29 01:44:46;;;;;;;3.25;2.40;;;;;;;10.65;54.69;102160.09;690267;28;27529;-63
2021/03/29 01:45:09;;;;;;;4.93;2.42;;;;;;;10.64;54.61;102156.53;687856;28;58919;-63
2021/03/29 01:45:30;;;;;;;4.18;2.17;;;;;;;10.67;54.53;102158.09;689401;28;29637;-63
2021/03/29 01:45:52;;;;;;;4.40;2.40;;;;;;;10.70;54.33;102155.09;689237;28;15354;-63
2021/03/29 01:46:14;;;;;;;2.83;2.20;;;;;;;10.69;54.22;102157.94;688371;28;61674;-63
2021/03/29 01:46:35;;;;;;;2.15;1.95;;;;;;;10.72;54.12;102163.94;689041;28;38332;-63
2021/03/29 01:46:57;;;;;;;3.83;2.30;;;;;;;10.72;54.43;102155.84;689256;28;21926;-63